Time;durP1;ratioP1;P1;durP2;ratioP2;P2;SDS_P1;SDS_P2;PMS_P1;PMS_P2;Temp;Humidity;BMP_temperature;BMP_pressure;BME280_temperature;BME280_humidity;BME280_pressure;Samples;Min_cycle;Max_cycle;Signal;HPM_P1;HPM_P2
2023/06/06 00:02:11;;;;;;;;;;;;;;;14.42;100.00;97645.57;110128;1245;68424;-67
2023/06/06 00:04:45;;;;;;;48.80;27.90;;;;;;;14.42;100.00;97645.98;110114;1240;58933;-67
2023/06/06 00:07:16;;;;;;;45.60;27.70;;;;;;;14.41;100.00;97646.70;110143;1242;58863;-68
2023/06/06 00:09:46;;;;;;;50.60;31.70;;;;;;;14.43;100.00;97645.55;110186;1240;70565;-68
2023/06/06 00:12:16;;;;;;;53.40;31.30;;;;;;;14.43;100.00;97651.86;110208;1242;69270;-68
2023/06/06 00:14:47;;;;;;;32.60;20.60;;;;;;;14.41;100.00;97648.31;110189;1240;69274;-68
2023/06/06 00:17:17;;;;;;;24.90;16.40;;;;;;;14.42;100.00;97646.83;110366;1241;58844;-68
2023/06/06 00:19:52;;;;;;;21.70;15.90;;;;;;;14.44;100.00;97647.71;110173;1244;58953;-68
2023/06/06 00:22:24;;;;;;;12.30;8.90;;;;;;;14.46;100.00;97647.86;110213;1242;70510;-67
2023/06/06 00:24:53;;;;;;;10.20;8.00;;;;;;;14.46;100.00;97645.59;110213;1244;69271;-67
2023/06/06 00:27:24;;;;;;;6.50;5.70;;;;;;;14.48;100.00;97646.88;110133;1242;69903;-67
2023/06/06 00:29:56;;;;;;;6.30;5.10;;;;;;;14.49;100.00;97646.93;110096;1240;59697;-67
2023/06/06 00:32:27;;;;;;;6.70;4.80;;;;;;;14.52;100.00;97643.40;110251;1241;59666;-67
2023/06/06 00:34:57;;;;;;;6.00;4.50;;;;;;;14.54;100.00;97640.98;110264;1240;70649;-67
2023/06/06 00:37:28;;;;;;;6.50;4.80;;;;;;;14.55;100.00;97642.45;110135;1245;69435;-70
2023/06/06 00:39:59;;;;;;;6.10;4.80;;;;;;;14.56;100.00;97637.59;110073;1245;69361;-67
2023/06/06 00:42:29;;;;;;;;;;;;;;;14.57;100.00;97632.84;110106;1243;59744;-67
2023/06/06 00:45:01;;;;;;;5.70;4.10;;;;;;;14.56;100.00;97633.43;110106;1242;59784;-67
2023/06/06 00:47:31;;;;;;;4.70;4.00;;;;;;;14.57;100.00;97630.03;110184;1242;70500;-67
2023/06/06 00:50:03;;;;;;;4.70;3.40;;;;;;;14.57;100.00;97628.95;110095;1246;69205;-67
2023/06/06 00:52:37;;;;;;;6.30;4.10;;;;;;;14.58;100.00;97629.42;110110;1241;69385;-69
2023/06/06 00:55:09;;;;;;;5.40;3.90;;;;;;;14.58;100.00;97628.54;110063;1244;59778;-67
2023/06/06 00:57:43;;;;;;;5.40;3.40;;;;;;;14.58;100.00;97626.44;110102;1241;59682;-69
2023/06/06 01:00:15;;;;;;;5.50;3.20;;;;;;;14.57;100.00;97622.48;110083;1244;71434;-67
2023/06/06 01:02:48;;;;;;;4.60;3.20;;;;;;;14.56;100.00;97619.70;110108;1245;68591;-68
2023/06/06 01:05:21;;;;;;;4.90;3.40;;;;;;;14.56;100.00;97621.47;110120;1242;68598;-66
2023/06/06 01:07:53;;;;;;;4.00;3.30;;;;;;;14.57;100.00;97618.11;110069;1246;59740;-69
2023/06/06 01:10:34;;;;;;;;;;;;;;;14.57;100.00;97617.72;110158;1246;59681;-68
2023/06/06 01:13:36;;;;;;;4.20;3.30;;;;;;;14.57;100.00;97620.38;110146;1243;70651;-68
2023/06/06 01:16:18;;;;;;;3.40;3.00;;;;;;;14.56;100.00;97619.18;110185;1242;69300;-68
2023/06/06 01:18:52;;;;;;;4.40;3.00;;;;;;;14.56;100.00;97617.60;110170;1241;69331;-69
2023/06/06 01:21:26;;;;;;;5.00;3.50;;;;;;;14.56;100.00;97617.80;110188;1240;59717;-68
2023/06/06 01:24:00;;;;;;;4.60;3.40;;;;;;;14.56;100.00;97618.53;110228;1245;59682;-68
2023/06/06 01:26:33;;;;;;;4.90;3.30;;;;;;;14.55;100.00;97616.49;110125;1245;70472;-67
2023/06/06 01:29:06;;;;;;;3.60;2.90;;;;;;;14.54;100.00;97611.34;110157;1246;69585;-68
2023/06/06 01:31:43;;;;;;;3.70;2.80;;;;;;;14.53;100.00;97610.88;110121;1253;69277;-68
2023/06/06 01:34:36;;;;;;;4.60;3.10;;;;;;;14.51;100.00;97609.80;110224;1242;59684;-69
2023/06/06 01:37:11;;;;;;;5.10;3.50;;;;;;;14.48;100.00;97610.70;110283;1246;59725;-68
2023/06/06 01:39:56;;;;;;;3.70;3.30;;;;;;;14.45;100.00;97610.96;110346;1242;70799;-67
2023/06/06 01:42:34;;;;;;;5.10;3.00;;;;;;;14.42;100.00;97613.70;109888;1244;69088;-68
2023/06/06 01:45:08;;;;;;;4.30;3.10;;;;;;;14.39;100.00;97614.71;110127;1241;67466;-67
2023/06/06 01:47:44;;;;;;;4.20;3.10;;;;;;;14.36;100.00;97615.98;110201;1242;59713;-67
2023/06/06 01:50:17;;;;;;;3.80;2.80;;;;;;;14.34;100.00;97620.52;110165;1246;59682;-68
2023/06/06 01:52:51;;;;;;;3.60;2.60;;;;;;;14.34;100.00;97627.39;110207;1247;71393;-67
2023/06/06 01:55:22;;;;;;;4.20;3.30;;;;;;;14.33;100.00;97627.24;110084;1245;69285;-68
2023/06/06 01:57:53;;;;;;;4.30;3.30;;;;;;;14.33;100.00;97632.72;110186;1242;69230;-68
2023/06/06 02:00:24;;;;;;;5.30;3.40;;;;;;;14.32;100.00;97635.11;110108;1245;59731;-68
2023/06/06 02:02:54;;;;;;;4.70;3.10;;;;;;;14.29;100.00;97632.72;110139;1241;59764;-66
2023/06/06 02:05:25;;;;;;;3.90;3.30;;;;;;;14.23;100.00;97637.55;110092;1244;70854;-68
2023/06/06 02:07:59;;;;;;;5.10;3.60;;;;;;;14.19;100.00;97642.63;110237;1241;69819;-68
2023/06/06 02:10:31;;;;;;;4.80;3.40;;;;;;;14.14;100.00;97646.92;110055;1244;69301;-69
2023/06/06 02:13:06;;;;;;;4.40;3.20;;;;;;;14.10;100.00;97648.48;109867;1241;59685;-68
2023/06/06 02:15:37;;;;;;;4.90;3.20;;;;;;;14.05;100.00;97647.87;109961;1244;59744;-67
2023/06/06 02:18:07;;;;;;;3.60;3.10;;;;;;;14.00;100.00;97649.16;110061;1240;70412;-67
2023/06/06 02:20:38;;;;;;;4.50;3.40;;;;;;;13.95;100.00;97646.21;110114;1242;69255;-68
2023/06/06 02:23:09;;;;;;;5.10;3.30;;;;;;;13.91;100.00;97650.27;110141;1242;69942;-69
2023/06/06 02:25:40;;;;;;;4.20;3.00;;;;;;;13.88;100.00;97652.95;109980;1244;59745;-68
2023/06/06 02:28:14;;;;;;;4.40;3.20;;;;;;;13.86;100.00;97656.46;110149;1242;59771;-68
2023/06/06 02:30:45;;;;;;;4.40;3.20;;;;;;;13.84;100.00;97660.48;110064;1246;71720;-67
2023/06/06 02:33:16;;;;;;;4.70;3.10;;;;;;;13.82;100.00;97657.30;110071;1246;69337;-67
2023/06/06 02:35:50;;;;;;;4.00;3.20;;;;;;;13.81;100.00;97657.58;110201;1242;68516;-68
2023/06/06 02:38:20;;;;;;;3.70;3.30;;;;;;;13.79;100.00;97659.65;110122;1245;59740;-68
2023/06/06 02:40:52;;;;;;;4.30;3.10;;;;;;;13.78;100.00;97659.05;110192;1241;59745;-68
2023/06/06 02:43:23;;;;;;;6.10;3.60;;;;;;;13.76;100.00;97666.29;109788;1245;70637;-67
2023/06/06 02:45:54;;;;;;;4.30;3.30;;;;;;;13.76;100.00;97663.73;109776;1248;68871;-67
2023/06/06 02:48:25;;;;;;;6.00;3.90;;;;;;;13.74;100.00;97663.48;110082;1245;69164;-68
2023/06/06 02:50:55;;;;;;;4.90;3.50;;;;;;;13.75;100.00;97665.55;110059;1242;59748;-68
2023/06/06 02:53:27;;;;;;;4.40;3.00;;;;;;;13.76;100.00;97664.25;110073;1246;59748;-68
2023/06/06 02:55:58;;;;;;;5.90;3.30;;;;;;;13.78;100.00;97667.10;110088;1241;70731;-67
2023/06/06 02:58:30;;;;;;;4.30;3.20;;;;;;;13.80;100.00;97666.38;110089;1245;69132;-67
2023/06/06 03:01:03;;;;;;;4.20;3.20;;;;;;;13.82;100.00;97666.21;110047;1241;69338;-68
2023/06/06 03:03:33;;;;;;;4.50;3.10;;;;;;;13.82;100.00;97667.08;110130;1248;59699;-67
2023/06/06 03:06:06;;;;;;;;;;;;;;;13.82;100.00;97672.52;110124;1241;59734;-67
2023/06/06 03:08:40;;;;;;;4.30;3.30;;;;;;;13.81;100.00;97668.09;110162;1242;71648;-67
2023/06/06 03:11:11;;;;;;;5.00;4.10;;;;;;;13.80;100.00;97667.45;110119;1241;69057;-68
2023/06/06 03:13:45;;;;;;;4.40;3.10;;;;;;;13.78;100.00;97665.17;110058;1244;68327;-67
2023/06/06 03:16:17;;;;;;;4.70;3.70;;;;;;;13.77;100.00;97663.83;110097;1246;59734;-67
2023/06/06 03:18:48;;;;;;;7.40;4.40;;;;;;;13.75;100.00;97671.69;110091;1241;59731;-68
2023/06/06 03:21:20;;;;;;;5.80;3.50;;;;;;;13.71;100.00;97670.05;110087;1241;70789;-68
2023/06/06 03:23:50;;;;;;;4.70;3.70;;;;;;;13.72;100.00;97669.44;110128;1241;69139;-69
2023/06/06 03:26:26;;;;;;;4.20;3.30;;;;;;;13.75;100.00;97669.87;110140;1244;68540;-67
2023/06/06 03:29:01;;;;;;;4.10;3.40;;;;;;;13.81;100.00;97666.27;110124;1241;59668;-69
2023/06/06 03:31:35;;;;;;;4.00;3.20;;;;;;;13.85;100.00;97666.27;110126;1245;59646;-68
2023/06/06 03:34:06;;;;;;;4.70;3.30;;;;;;;13.90;100.00;97667.45;110047;1244;71241;-68
2023/06/06 03:36:38;;;;;;;5.40;3.60;;;;;;;13.97;100.00;97665.10;110137;1245;69378;-67
2023/06/06 03:39:09;;;;;;;4.40;3.70;;;;;;;14.06;100.00;97669.86;110109;1241;68447;-68
2023/06/06 03:41:40;;;;;;;5.50;3.50;;;;;;;14.12;100.00;97673.21;110104;1246;59768;-69
2023/06/06 03:44:11;;;;;;;5.60;3.60;;;;;;;14.19;100.00;97675.75;110156;1245;59741;-65
2023/06/06 03:46:41;;;;;;;4.30;3.60;;;;;;;14.30;100.00;97674.31;110084;1241;70901;-67
2023/06/06 03:49:11;;;;;;;5.60;3.70;;;;;;;14.42;100.00;97671.01;110145;1241;69032;-68
2023/06/06 03:51:41;;;;;;;5.70;3.70;;;;;;;14.56;100.00;97674.45;110084;1244;69175;-67
2023/06/06 03:54:11;;;;;;;4.80;3.90;;;;;;;14.68;100.00;97667.61;110156;1241;59711;-67
2023/06/06 03:56:42;;;;;;;5.50;3.60;;;;;;;14.77;100.00;97667.88;110157;1246;59676;-68
2023/06/06 03:59:12;;;;;;;4.60;3.40;;;;;;;14.90;100.00;97666.98;110136;1251;70387;-68
2023/06/06 04:01:44;;;;;;;4.60;3.60;;;;;;;15.01;100.00;97671.82;109822;1245;68804;-69
2023/06/06 04:04:16;;;;;;;5.20;3.50;;;;;;;15.16;100.00;97670.16;109871;1245;69301;-68
2023/06/06 04:06:45;;;;;;;3.50;3.00;;;;;;;15.35;100.00;97671.48;110124;1244;59646;-68
2023/06/06 04:09:16;;;;;;;3.90;3.10;;;;;;;15.55;100.00;97669.33;110136;1245;59655;-68
2023/06/06 04:11:45;;;;;;;4.50;3.30;;;;;;;15.76;100.00;97672.04;109989;1241;70694;-67
2023/06/06 04:14:16;;;;;;;4.40;3.20;;;;;;;15.97;100.00;97668.20;110176;1245;69228;-67
2023/06/06 04:16:46;;;;;;;4.60;3.50;;;;;;;16.18;100.00;97671.77;110103;1245;69340;-68
2023/06/06 04:19:15;;;;;;;;;;;;;;;16.40;99.74;97671.34;110058;1244;59701;-67
2023/06/06 04:21:46;;;;;;;4.20;3.40;;;;;;;16.62;95.99;97669.45;110150;1244;59681;-68
2023/06/06 04:24:16;;;;;;;4.10;3.00;;;;;;;16.86;96.37;97669.53;110079;1246;71710;-66
2023/06/06 04:26:48;;;;;;;3.60;2.90;;;;;;;17.08;93.85;97670.44;110208;1245;69045;-66
2023/06/06 04:29:18;;;;;;;5.30;2.90;;;;;;;17.28;94.25;97673.39;110137;1243;68546;-67
2023/06/06 04:31:47;;;;;;;;;;;;;;;17.46;93.99;97673.98;110147;1244;59668;-68
2023/06/06 04:34:23;;;;;;;3.50;2.50;;;;;;;17.60;90.57;97675.69;110308;1242;59652;-68
2023/06/06 04:36:56;;;;;;;3.60;2.50;;;;;;;17.69;89.84;97681.66;109901;1241;71998;-67
2023/06/06 04:39:27;;;;;;;4.10;2.60;;;;;;;17.73;85.91;97679.81;109885;1244;69802;-66
2023/06/06 04:41:58;;;;;;;3.10;2.20;;;;;;;17.82;87.24;97681.84;110287;1241;69282;-69
2023/06/06 04:44:29;;;;;;;3.20;2.30;;;;;;;17.87;83.22;97684.61;110139;1243;59675;-68
2023/06/06 04:47:03;;;;;;;3.70;2.20;;;;;;;17.92;83.29;97688.37;110141;1242;59753;-67
2023/06/06 04:49:36;;;;;;;3.60;2.10;;;;;;;17.92;81.50;97684.14;109847;1244;71982;-64
2023/06/06 04:52:10;;;;;;;3.20;2.20;;;;;;;17.97;82.33;97688.78;110176;1243;69811;-68
2023/06/06 04:54:40;;;;;;;3.40;2.20;;;;;;;18.03;80.13;97685.73;110067;1243;68710;-68
2023/06/06 04:57:16;;;;;;;3.30;2.20;;;;;;;18.05;74.51;97678.60;110118;1241;59662;-66
2023/06/06 04:59:52;;;;;;;3.30;2.20;;;;;;;18.17;79.72;97679.97;110125;1246;59636;-66
2023/06/06 05:02:28;;;;;;;2.80;2.20;;;;;;;18.22;77.22;97676.91;110072;1244;70658;-65
2023/06/06 05:04:58;;;;;;;4.10;2.30;;;;;;;18.31;78.47;97669.55;110221;1242;69798;-68
2023/06/06 05:07:28;;;;;;;3.40;2.10;;;;;;;18.38;78.32;97670.21;110084;1245;69904;-66
2023/06/06 05:09:57;;;;;;;2.80;2.10;;;;;;;18.45;77.59;97671.98;110192;1242;59737;-65
2023/06/06 05:12:26;;;;;;;;;;;;;;;18.54;76.28;97666.35;110129;1242;59620;-66
2023/06/06 05:14:56;;;;;;;3.60;2.20;;;;;;;18.62;73.70;97665.88;110167;1241;71185;-66
2023/06/06 05:17:27;;;;;;;3.60;2.10;;;;;;;18.75;74.99;97671.77;110163;1240;68434;-66
2023/06/06 05:19:57;;;;;;;3.30;2.30;;;;;;;18.87;74.51;97671.88;109988;1241;69252;-65
2023/06/06 05:22:26;;;;;;;4.00;2.30;;;;;;;19.01;71.57;97675.33;110117;1244;59729;-65
2023/06/06 05:24:55;;;;;;;3.00;2.00;;;;;;;19.21;72.81;97675.49;110236;1242;59659;-66
2023/06/06 05:27:24;;;;;;;3.20;2.10;;;;;;;19.34;71.90;97678.98;110129;1242;71298;-65
2023/06/06 05:29:53;;;;;;;3.90;2.00;;;;;;;19.46;72.68;97679.52;110040;1241;69696;-66
2023/06/06 05:32:22;;;;;;;4.80;2.10;;;;;;;19.52;69.82;97677.76;110041;1246;69974;-65
2023/06/06 05:34:52;;;;;;;2.40;1.90;;;;;;;19.54;68.94;97678.05;110137;1239;59728;-68
2023/06/06 05:37:21;;;;;;;3.80;2.20;;;;;;;19.52;66.85;97676.52;110275;1241;59734;-68
2023/06/06 05:39:50;;;;;;;4.20;2.10;;;;;;;19.50;65.73;97676.91;110441;1241;70633;-69
2023/06/06 05:42:21;;;;;;;4.20;2.00;;;;;;;19.45;65.12;97677.77;110228;1241;69821;-65
2023/06/06 05:44:51;;;;;;;3.90;2.10;;;;;;;19.43;65.79;97675.40;110369;1241;69085;-68
2023/06/06 05:47:20;;;;;;;4.10;2.30;;;;;;;19.37;64.53;97674.63;110245;1241;60181;-66
2023/06/06 05:49:50;;;;;;;4.40;2.20;;;;;;;19.27;62.56;97671.70;110308;1241;59730;-67
2023/06/06 05:52:19;;;;;;;;;;;;;;;19.20;62.52;97671.88;110305;1241;72016;-69
2023/06/06 05:54:49;;;;;;;5.00;2.20;;;;;;;19.19;62.89;97675.69;110159;1240;69828;-68
2023/06/06 05:57:22;;;;;;;3.00;2.00;;;;;;;19.25;62.53;97676.83;110137;1244;69280;-65
2023/06/06 05:59:51;;;;;;;2.50;1.90;;;;;;;19.31;61.91;97678.90;110200;1241;60022;-67
2023/06/06 06:02:22;;;;;;;3.10;2.10;;;;;;;19.37;59.71;97682.91;110385;1247;59687;-67
2023/06/06 06:04:52;;;;;;;3.10;2.20;;;;;;;19.50;61.23;97676.14;110354;1241;71982;-67
2023/06/06 06:07:24;;;;;;;2.80;2.00;;;;;;;19.73;62.00;97677.30;110218;1241;69678;-67
2023/06/06 06:09:53;;;;;;;3.60;2.20;;;;;;;19.96;61.36;97675.09;110137;1249;69254;-67
2023/06/06 06:12:22;;;;;;;3.70;2.20;;;;;;;20.17;60.33;97672.11;110183;1242;59675;-68
2023/06/06 06:14:51;;;;;;;3.80;1.90;;;;;;;20.42;59.83;97666.04;110151;1242;59655;-68
2023/06/06 06:17:22;;;;;;;3.00;1.80;;;;;;;20.65;59.19;97662.09;110159;1242;71971;-68
2023/06/06 06:19:52;;;;;;;4.70;1.70;;;;;;;20.86;56.63;97662.48;110132;1240;68621;-67
2023/06/06 06:22:22;;;;;;;;;;;;;;;21.00;55.78;97664.23;110115;1241;69402;-68
2023/06/06 06:24:52;;;;;;;3.10;1.80;;;;;;;21.09;52.82;97663.60;110159;1242;59722;-68
2023/06/06 06:27:22;;;;;;;4.40;2.10;;;;;;;21.21;53.81;97670.20;110210;1242;59596;-66
2023/06/06 06:29:51;;;;;;;4.70;1.90;;;;;;;21.30;51.69;97676.30;110148;1242;72007;-67
2023/06/06 06:32:20;;;;;;;4.10;2.10;;;;;;;21.33;51.48;97676.29;110088;1241;69147;-68
2023/06/06 06:34:50;;;;;;;3.50;1.90;;;;;;;21.09;51.42;97675.75;110086;1245;69770;-66
2023/06/06 06:37:20;;;;;;;3.00;1.60;;;;;;;21.20;50.91;97679.16;110111;1242;59694;-68
2023/06/06 06:39:51;;;;;;;3.70;1.80;;;;;;;21.35;51.73;97682.16;109871;1244;59706;-67
2023/06/06 06:42:20;;;;;;;2.30;1.80;;;;;;;21.47;50.93;97683.93;110153;1244;70651;-68
2023/06/06 06:44:57;;;;;;;2.10;1.50;;;;;;;21.59;50.62;97686.68;110200;1243;69706;-67
2023/06/06 06:47:26;;;;;;;4.60;1.70;;;;;;;21.71;49.55;97685.98;109813;1245;466392;-68
2023/06/06 06:49:57;;;;;;;1.90;1.60;;;;;;;21.92;49.88;97684.69;110165;1245;59683;-67
2023/06/06 06:52:27;;;;;;;3.90;1.80;;;;;;;22.03;50.30;97685.41;110191;1243;59692;-69
2023/06/06 06:54:58;;;;;;;3.40;1.60;;;;;;;22.17;50.10;97689.30;110146;1241;71339;-67
2023/06/06 06:57:28;;;;;;;2.10;1.70;;;;;;;22.35;48.97;97686.10;110164;1241;69265;-67
2023/06/06 06:59:58;;;;;;;3.50;1.80;;;;;;;22.48;48.27;97688.36;110160;1241;69431;-66
2023/06/06 07:02:28;;;;;;;2.90;1.80;;;;;;;22.43;47.46;97690.98;109871;1244;59725;-66
2023/06/06 07:04:59;;;;;;;5.90;2.20;;;;;;;22.50;47.75;97693.23;110079;1247;59669;-67
2023/06/06 07:07:28;;;;;;;2.70;1.60;;;;;;;22.66;47.29;97697.58;110207;1242;70473;-67
2023/06/06 07:09:57;;;;;;;3.20;1.40;;;;;;;22.78;47.75;97693.96;110145;1242;70168;-65
2023/06/06 07:12:26;;;;;;;2.10;1.70;;;;;;;22.97;47.35;97694.99;110165;1244;69895;-67
2023/06/06 07:14:55;;;;;;;5.50;1.80;;;;;;;23.04;46.09;97690.40;110110;1241;59725;-66
2023/06/06 07:17:26;;;;;;;3.00;1.50;;;;;;;23.12;45.57;97690.27;110150;1242;59713;-66
2023/06/06 07:19:56;;;;;;;2.50;1.60;;;;;;;23.10;44.89;97688.23;110114;1243;71133;-67
2023/06/06 07:22:25;;;;;;;2.40;1.60;;;;;;;23.21;45.81;97688.94;110172;1242;68519;-68
2023/06/06 07:24:53;;;;;;;2.10;1.40;;;;;;;23.24;44.84;97686.72;110156;1240;69262;-67
2023/06/06 07:27:23;;;;;;;3.30;1.50;;;;;;;23.26;44.18;97685.73;110189;1245;59741;-66
2023/06/06 07:29:52;;;;;;;3.00;1.60;;;;;;;23.37;44.83;97689.11;110197;1243;59678;-68
2023/06/06 07:32:21;;;;;;;4.40;1.90;;;;;;;23.30;45.09;97685.54;110175;1242;71971;-67
2023/06/06 07:34:51;;;;;;;3.80;1.80;;;;;;;23.27;44.95;97687.80;110165;1240;68401;-67
2023/06/06 07:37:20;;;;;;;4.80;1.70;;;;;;;23.36;44.52;97690.28;110170;1241;69864;-68
2023/06/06 07:39:50;;;;;;;4.10;1.90;;;;;;;23.36;44.69;97690.23;110153;1241;59732;-66
2023/06/06 07:42:20;;;;;;;2.90;1.60;;;;;;;23.24;44.14;97690.96;110137;1242;59662;-68
2023/06/06 07:44:51;;;;;;;3.00;1.50;;;;;;;23.30;44.55;97693.16;110180;1242;71911;-68
2023/06/06 07:47:20;;;;;;;2.50;1.50;;;;;;;23.38;43.33;97696.10;110123;1243;68401;-66
2023/06/06 07:49:50;;;;;;;3.30;1.90;;;;;;;23.59;43.36;97695.21;110159;1242;69174;-67
2023/06/06 07:52:19;;;;;;;3.10;1.60;;;;;;;23.71;43.55;97696.87;110161;1242;59790;-67
2023/06/06 07:54:48;;;;;;;2.20;1.50;;;;;;;23.96;43.81;97694.42;110171;1243;59743;-67
2023/06/06 07:57:19;;;;;;;2.60;1.50;;;;;;;24.07;43.31;97692.45;110202;1243;71030;-67
2023/06/06 07:59:48;;;;;;;2.70;1.70;;;;;;;24.14;43.18;97689.11;110185;1243;69768;-67
2023/06/06 08:02:17;;;;;;;2.90;1.40;;;;;;;24.11;43.10;97686.20;110164;1242;69754;-66
2023/06/06 08:04:46;;;;;;;;;;;;;;;24.18;41.92;97687.92;110173;1242;59700;-67
2023/06/06 08:07:16;;;;;;;2.40;1.40;;;;;;;24.16;41.78;97689.17;110146;1242;60090;-66
2023/06/06 08:09:46;;;;;;;4.20;1.80;;;;;;;24.10;42.44;97688.20;110109;1240;72331;-67
2023/06/06 08:12:15;;;;;;;2.90;1.50;;;;;;;24.11;42.55;97687.02;110206;1242;68923;-67
2023/06/06 08:14:44;;;;;;;;;;;;;;;24.23;43.18;97683.36;109952;1244;68522;-66
2023/06/06 08:17:15;;;;;;;3.70;1.80;;;;;;;24.50;42.58;97674.50;110131;1242;59731;-66
2023/06/06 08:19:44;;;;;;;2.70;1.70;;;;;;;24.36;41.37;97682.27;110137;1242;59708;-67
2023/06/06 08:22:14;;;;;;;6.70;1.80;;;;;;;24.50;41.63;97677.67;110153;1244;71981;-67
2023/06/06 08:24:43;;;;;;;2.00;1.50;;;;;;;24.67;41.39;97674.79;110122;1242;68087;-67
2023/06/06 08:27:12;;;;;;;3.10;1.60;;;;;;;24.87;41.05;97670.08;110193;1242;69266;-68
2023/06/06 08:29:42;;;;;;;3.30;1.60;;;;;;;24.90;40.45;97670.02;110112;1242;59697;-68
2023/06/06 08:32:12;;;;;;;3.30;1.70;;;;;;;25.10;40.48;97667.06;110168;1240;59711;-67
2023/06/06 08:34:42;;;;;;;1.70;1.50;;;;;;;25.43;40.93;97665.92;110137;1240;72371;-67
2023/06/06 08:37:11;;;;;;;2.60;1.50;;;;;;;25.73;40.57;97664.02;110172;1240;69708;-67
2023/06/06 08:39:40;;;;;;;2.40;1.70;;;;;;;25.76;38.96;97664.61;110099;1242;69248;-67
2023/06/06 08:42:17;;;;;;;2.10;1.60;;;;;;;25.75;38.86;97665.67;110149;1246;59732;-67
2023/06/06 08:44:47;;;;;;;4.10;1.40;;;;;;;25.78;38.85;97663.18;110142;1241;59734;-68
2023/06/06 08:47:17;;;;;;;4.40;1.80;;;;;;;26.01;39.10;97662.87;110168;1240;71981;-69
2023/06/06 08:49:46;;;;;;;2.00;1.30;;;;;;;26.27;38.25;97661.04;110173;1242;67730;-67
2023/06/06 08:52:16;;;;;;;1.70;1.30;;;;;;;26.66;37.58;97657.48;110164;1242;69838;-69
2023/06/06 08:54:47;;;;;;;2.70;1.50;;;;;;;27.09;36.88;97653.46;110204;1242;59774;-69
2023/06/06 08:57:19;;;;;;;1.80;1.30;;;;;;;27.33;35.78;97655.88;110156;1242;59741;-68
2023/06/06 08:59:48;;;;;;;2.50;1.30;;;;;;;27.28;35.70;97649.63;110164;1242;70250;-68
2023/06/06 09:02:18;;;;;;;2.50;1.50;;;;;;;27.60;35.91;97649.24;110129;1241;68588;-68
2023/06/06 09:04:48;;;;;;;3.10;1.60;;;;;;;27.82;34.62;97652.05;110125;1243;69869;-68
2023/06/06 09:07:18;;;;;;;3.40;1.30;;;;;;;27.75;32.82;97650.17;110158;1242;59741;-68
2023/06/06 09:09:48;;;;;;;2.60;1.50;;;;;;;27.70;33.68;97649.83;110152;1241;59589;-69
2023/06/06 09:12:19;;;;;;;1.90;1.20;;;;;;;27.70;33.76;97650.77;110157;1242;71426;-69
2023/06/06 09:14:49;;;;;;;2.20;1.40;;;;;;;27.14;33.22;97648.56;110167;1244;69811;-68
2023/06/06 09:17:18;;;;;;;3.80;1.40;;;;;;;26.55;34.15;97648.79;110173;1242;67547;-69
2023/06/06 09:19:49;;;;;;;2.00;1.30;;;;;;;26.20;35.10;97643.69;110181;1245;59698;-68
2023/06/06 09:22:19;;;;;;;1.90;1.30;;;;;;;25.93;36.29;97643.33;110179;1242;59697;-67
2023/06/06 09:24:50;;;;;;;2.80;1.50;;;;;;;25.81;36.21;97635.67;110131;1240;72508;-68
2023/06/06 09:27:28;;;;;;;3.30;1.70;;;;;;;25.69;35.75;97634.30;110190;1240;69395;-68
2023/06/06 09:29:58;;;;;;;2.00;1.40;;;;;;;25.45;36.30;97630.86;110169;1242;69845;-68
2023/06/06 09:32:30;;;;;;;3.20;1.60;;;;;;;25.29;36.04;97632.31;110115;1241;59691;-68
2023/06/06 09:35:01;;;;;;;2.10;1.50;;;;;;;25.15;36.97;97628.02;110174;1245;60060;-68
2023/06/06 09:37:30;;;;;;;2.50;1.60;;;;;;;25.18;37.01;97630.34;110157;1240;71354;-68
2023/06/06 09:40:12;;;;;;;;;;;;;;;25.34;36.90;97630.03;110144;1245;69799;-68
2023/06/06 09:42:47;;;;;;;2.10;1.40;;;;;;;25.60;36.67;97631.40;110124;1241;69870;-67
2023/06/06 09:45:19;;;;;;;2.40;1.50;;;;;;;25.76;36.81;97628.29;110149;1242;59748;-68
2023/06/06 09:47:49;;;;;;;4.10;2.00;;;;;;;25.82;36.86;97628.92;110168;1242;59705;-69
2023/06/06 09:50:19;;;;;;;2.80;1.70;;;;;;;25.97;36.07;97624.83;110188;1242;70667;-70
2023/06/06 09:52:51;;;;;;;3.70;1.40;;;;;;;26.09;35.93;97619.77;110183;1242;69238;-70
2023/06/06 09:55:23;;;;;;;2.50;1.70;;;;;;;26.24;35.85;97616.98;110153;1242;69882;-69
2023/06/06 09:57:54;;;;;;;3.50;1.90;;;;;;;26.49;35.75;97618.52;110181;1240;59752;-67
2023/06/06 10:00:24;;;;;;;2.60;1.60;;;;;;;26.73;35.42;97612.52;110170;1240;59678;-66
2023/06/06 10:02:57;;;;;;;2.30;1.70;;;;;;;27.06;35.05;97617.19;110208;1242;70719;-69
2023/06/06 10:05:28;;;;;;;2.60;1.50;;;;;;;27.30;34.97;97614.55;110064;1244;69747;-68
2023/06/06 10:07:59;;;;;;;2.80;1.60;;;;;;;27.49;34.12;97612.13;110167;1242;68496;-68
2023/06/06 10:10:28;;;;;;;2.30;1.50;;;;;;;27.59;34.62;97613.55;110159;1244;59683;-69
2023/06/06 10:12:59;;;;;;;2.30;1.60;;;;;;;27.67;34.35;97608.27;110162;1242;59689;-68
2023/06/06 10:15:29;;;;;;;3.40;2.00;;;;;;;27.81;34.42;97604.77;110138;1243;71504;-69
2023/06/06 10:17:59;;;;;;;3.20;2.20;;;;;;;27.97;35.53;97602.48;110195;1243;69833;-69
2023/06/06 10:20:28;;;;;;;2.40;1.70;;;;;;;28.11;34.88;97591.55;110139;1241;69892;-68
2023/06/06 10:23:00;;;;;;;;;;;;;;;28.22;34.21;97587.86;110139;1242;59740;-68
2023/06/06 10:25:30;;;;;;;2.10;1.70;;;;;;;28.31;34.15;97585.20;110187;1242;59608;-68
2023/06/06 10:28:26;;;;;;;2.50;1.80;;;;;;;28.58;34.12;97583.63;110153;1240;71389;-68
2023/06/06 10:31:06;;;;;;;3.00;2.10;;;;;;;28.70;33.55;97579.38;110172;1246;70198;-69
2023/06/06 10:33:55;;;;;;;1.60;1.40;;;;;;;28.51;33.40;97580.46;110151;1240;69135;-69
2023/06/06 10:36:23;;;;;;;2.80;1.60;;;;;;;28.71;33.33;97572.75;110180;1241;59652;-70
2023/06/06 10:39:20;;;;;;;3.20;2.00;;;;;;;28.58;32.82;97571.21;110168;1242;59673;-69
2023/06/06 10:41:55;;;;;;;2.80;1.60;;;;;;;28.70;33.28;97565.02;110175;1241;71376;-68
2023/06/06 10:44:37;;;;;;;1.90;1.30;;;;;;;28.60;33.46;97569.30;110188;1242;69071;-69
2023/06/06 10:47:27;;;;;;;3.10;1.60;;;;;;;28.54;33.44;97571.35;110186;1242;69759;-68
2023/06/06 10:50:11;;;;;;;2.90;1.90;;;;;;;28.63;33.88;97565.16;110163;1242;59712;-69
2023/06/06 10:52:41;;;;;;;2.50;1.70;;;;;;;28.91;33.76;97565.45;110181;1240;60216;-69
2023/06/06 10:55:22;;;;;;;2.50;1.60;;;;;;;28.89;33.12;97562.00;110217;1240;70660;-69
2023/06/06 10:57:53;;;;;;;3.60;2.10;;;;;;;28.66;32.96;97558.89;110185;1242;69170;-69
2023/06/06 11:00:25;;;;;;;2.90;1.60;;;;;;;28.38;33.54;97556.88;110210;1240;69098;-69
2023/06/06 11:02:58;;;;;;;2.10;1.50;;;;;;;27.97;34.08;97558.47;110161;1242;59772;-68
2023/06/06 11:05:28;;;;;;;3.10;1.80;;;;;;;27.75;34.55;97561.86;110153;1243;59634;-67
2023/06/06 11:07:58;;;;;;;3.10;1.90;;;;;;;27.73;35.44;97564.36;110170;1240;72244;-68
2023/06/06 11:10:27;;;;;;;2.60;1.80;;;;;;;27.82;34.89;97563.73;110167;1242;69085;-68
2023/06/06 11:12:56;;;;;;;2.50;1.80;;;;;;;27.82;34.55;97562.83;110168;1242;69253;-68
2023/06/06 11:15:29;;;;;;;2.40;1.80;;;;;;;27.93;34.51;97561.17;110158;1242;60071;-68
2023/06/06 11:18:05;;;;;;;2.30;1.70;;;;;;;27.99;34.36;97557.61;110168;1240;59727;-68
2023/06/06 11:20:40;;;;;;;2.60;1.50;;;;;;;27.98;34.12;97560.07;110135;1240;71972;-68
2023/06/06 11:23:11;;;;;;;2.90;1.70;;;;;;;28.23;34.49;97555.77;110142;1242;69764;-68
2023/06/06 11:25:40;;;;;;;2.20;1.60;;;;;;;28.61;34.62;97550.77;110163;1240;69900;-69
2023/06/06 11:28:09;;;;;;;3.30;2.10;;;;;;;28.85;34.52;97555.42;110151;1244;59741;-68
2023/06/06 11:30:39;;;;;;;2.40;1.60;;;;;;;28.66;33.62;97553.35;110189;1242;59710;-68
2023/06/06 11:33:09;;;;;;;4.00;2.00;;;;;;;28.23;34.18;97544.36;110135;1241;71909;-69
2023/06/06 11:35:39;;;;;;;2.20;1.70;;;;;;;28.20;34.78;97543.50;110185;1240;69634;-66
2023/06/06 11:38:09;;;;;;;1.90;1.50;;;;;;;28.35;34.68;97537.42;110206;1242;69308;-69
2023/06/06 11:40:37;;;;;;;2.70;1.60;;;;;;;28.44;35.06;97533.85;110144;1242;59744;-68
2023/06/06 11:43:07;;;;;;;2.60;1.90;;;;;;;28.54;34.24;97533.79;110159;1249;59654;-69
2023/06/06 11:45:36;;;;;;;2.60;2.00;;;;;;;28.39;33.31;97531.73;110189;1242;71296;-69